Time;durP1;ratioP1;P1;durP2;ratioP2;P2;SDS_P1;SDS_P2;PMS_P1;PMS_P2;Temp;Humidity;BMP_temperature;BMP_pressure;BME280_temperature;BME280_humidity;BME280_pressure;Samples;Min_cycle;Max_cycle;Signal;HPM_P1;HPM_P2
2022/12/05 00:00:53;;;;;;;6.80;5.23;;;8.50;75.40;8.40;96051.00;;;;5101977;28;20195;-84
2022/12/05 00:03:20;;;;;;;6.23;4.97;;;8.50;75.60;8.40;96055.00;;;;5103555;28;20865;-87
2022/12/05 00:05:49;;;;;;;6.37;4.67;;;8.50;75.60;8.40;96060.00;;;;5105401;28;20667;-87
2022/12/05 00:08:16;;;;;;;6.30;5.23;;;8.50;75.70;8.40;96060.00;;;;5104382;28;20554;-87
2022/12/05 00:10:43;;;;;;;8.00;5.10;;;8.50;75.70;8.40;96059.00;;;;5100452;28;21241;-87
2022/12/05 00:13:11;;;;;;;6.70;5.33;;;8.50;75.60;8.40;96072.00;;;;5103918;28;20306;-87
2022/12/05 00:15:39;;;;;;;6.27;5.13;;;8.50;75.50;8.40;96075.00;;;;5103198;28;20275;-87
2022/12/05 00:18:07;;;;;;;8.53;5.33;;;8.50;75.30;8.40;96068.00;;;;5104238;28;20600;-84
2022/12/05 00:20:34;;;;;;;6.63;5.20;;;8.50;75.40;8.40;96082.00;;;;5106883;28;20257;-86
2022/12/05 00:23:03;;;;;;;7.83;5.40;;;8.60;75.50;8.40;96083.00;;;;5107441;28;20301;-87
2022/12/05 00:25:30;;;;;;;7.07;5.50;;;8.50;75.40;8.40;96084.00;;;;5106818;28;20199;-87
2022/12/05 00:27:57;;;;;;;8.83;5.63;;;8.50;75.20;8.40;96087.00;;;;5108118;28;20226;-87
2022/12/05 00:30:24;;;;;;;7.63;5.63;;;8.50;75.20;8.30;96078.00;;;;5106098;28;20293;-85
2022/12/05 00:32:51;;;;;;;7.23;5.83;;;8.50;75.20;8.40;96075.00;;;;5106649;28;20224;-87
2022/12/05 00:35:19;;;;;;;7.07;6.03;;;8.50;75.20;8.30;96067.00;;;;5108451;28;20860;-86
2022/12/05 00:37:46;;;;;;;7.57;5.57;;;8.50;75.20;8.30;96074.00;;;;5108211;28;20234;-84
2022/12/05 00:40:14;;;;;;;8.27;5.53;;;8.50;75.10;8.30;96080.00;;;;5107060;28;20214;-86
2022/12/05 00:42:41;;;;;;;7.90;5.63;;;8.50;75.90;8.30;96092.00;;;;5107073;28;20237;-87
2022/12/05 00:45:10;;;;;;;7.03;5.40;;;8.50;75.30;8.30;96097.00;;;;5106929;28;20331;-87
2022/12/05 00:47:37;;;;;;;6.20;4.80;;;8.50;75.20;8.30;96097.00;;;;5107840;28;20278;-87
2022/12/05 00:50:06;;;;;;;8.03;5.70;;;8.50;75.10;8.30;96092.00;;;;5105960;28;20293;-86
2022/12/05 00:52:34;;;;;;;6.40;4.90;;;8.50;75.00;8.30;96086.00;;;;5105842;28;20669;-87
2022/12/05 00:55:01;;;;;;;5.37;4.77;;;8.50;74.90;8.20;96092.00;;;;5105810;28;20234;-85
2022/12/05 00:57:29;;;;;;;7.83;5.07;;;8.50;74.90;8.20;96100.00;;;;5108074;28;20191;-87
2022/12/05 00:59:56;;;;;;;6.23;4.90;;;8.50;75.10;8.20;96102.00;;;;5106392;28;20252;-86
2022/12/05 01:02:24;;;;;;;5.97;5.27;;;8.40;75.10;8.20;96112.00;;;;5105711;28;20197;-86
2022/12/05 01:04:51;;;;;;;6.40;5.70;;;8.40;75.00;8.20;96123.00;;;;5105568;28;20667;-85
2022/12/05 01:07:18;;;;;;;7.20;5.03;;;8.40;74.90;8.20;96121.00;;;;5106592;28;20205;-84
2022/12/05 01:09:45;;;;;;;5.80;5.00;;;8.40;75.00;8.20;96127.00;;;;5106891;28;20202;-85
2022/12/05 01:12:12;;;;;;;6.00;5.10;;;8.40;75.00;8.20;96123.00;;;;5105276;28;20230;-86
2022/12/05 01:14:40;;;;;;;5.93;5.30;;;8.40;75.00;8.20;96126.00;;;;5105462;28;20531;-85
2022/12/05 01:17:08;;;;;;;6.77;5.47;;;8.30;74.90;8.10;96131.00;;;;5100902;28;20853;-87
2022/12/05 01:19:35;;;;;;;7.17;5.27;;;8.40;75.00;8.10;96120.00;;;;5106169;28;20224;-87
2022/12/05 01:22:02;;;;;;;6.43;5.00;;;8.40;75.00;8.10;96128.00;;;;5106897;28;20226;-85
2022/12/05 01:24:30;;;;;;;5.00;4.47;;;8.40;75.00;8.10;96135.00;;;;5108003;28;20318;-84
2022/12/05 01:26:58;;;;;;;6.70;5.00;;;8.40;75.00;8.10;96120.00;;;;5106142;28;20222;-86
2022/12/05 01:29:26;;;;;;;8.00;5.47;;;8.40;75.00;8.10;96125.00;;;;5105005;28;20201;-87
2022/12/05 01:31:55;;;;;;;6.17;4.77;;;8.30;74.70;8.10;96136.00;;;;5106355;28;20824;-87
2022/12/05 01:34:22;;;;;;;5.73;4.33;;;8.30;74.60;8.10;96136.00;;;;5105840;28;20222;-85
2022/12/05 01:36:50;;;;;;;6.73;5.07;;;8.30;74.50;8.00;96137.00;;;;5105929;28;20655;-84
2022/12/05 01:39:17;;;;;;;6.97;5.00;;;8.30;74.60;8.00;96146.00;;;;5105625;28;20225;-86
2022/12/05 01:41:47;;;;;;;6.40;5.10;;;8.30;74.60;8.00;96157.00;;;;5105572;28;20297;-87
2022/12/05 01:44:59;;;;;;;5.97;4.57;;;8.20;74.70;8.00;96147.00;;;;5105297;28;20219;-86
2022/12/05 01:47:32;;;;;;;4.73;4.17;;;8.20;74.50;7.90;96164.00;;;;5104559;28;20289;-85
2022/12/05 01:50:00;;;;;;;7.50;5.83;;;8.20;74.70;7.90;96167.00;;;;5106339;28;20279;-85
2022/12/05 01:52:31;;;;;;;6.53;4.80;;;8.20;74.80;7.90;96173.00;;;;5106354;28;20285;-86
2022/12/05 01:55:05;;;;;;;9.47;5.17;;;8.20;74.90;7.90;96177.00;;;;5105847;28;20234;-86
2022/12/05 01:57:33;;;;;;;7.67;5.00;;;8.10;74.90;7.90;96171.00;;;;5106608;28;20221;-86
2022/12/05 02:00:09;;;;;;;7.00;4.90;;;8.10;75.00;7.90;96178.00;;;;5104506;28;20326;-86
2022/12/05 02:02:40;;;;;;;7.90;4.63;;;8.10;75.00;7.90;96171.00;;;;5106800;28;20198;-86
2022/12/05 02:05:15;;;;;;;7.33;5.53;;;8.10;75.00;7.90;96167.00;;;;5102704;28;20198;-87
2022/12/05 02:07:43;;;;;;;6.57;5.10;;;8.10;75.70;7.90;96171.00;;;;5105272;28;20273;-87
2022/12/05 02:10:11;;;;;;;7.10;5.20;;;8.20;75.10;7.90;96169.00;;;;5105323;28;20209;-87
2022/12/05 02:12:39;;;;;;;7.37;5.87;;;8.10;75.10;7.90;96177.00;;;;5105970;28;20256;-84
2022/12/05 02:15:41;;;;;;;6.23;5.13;;;8.10;75.20;7.90;96179.00;;;;5105250;28;20206;-85
2022/12/05 02:18:26;;;;;;;6.93;5.30;;;8.10;75.10;7.90;96190.00;;;;5099392;28;20210;-86
2022/12/05 02:21:29;;;;;;;9.77;5.40;;;8.10;75.30;7.90;96204.00;;;;5106413;28;20301;-84
2022/12/05 02:25:00;;;;;;;6.10;4.90;;;8.10;75.30;7.90;96208.00;;;;5104328;28;20736;-88
2022/12/05 02:27:51;;;;;;;6.80;5.13;;;8.20;75.30;7.90;96198.00;;;;5015127;28;20664;-87
2022/12/05 02:30:21;;;;;;;5.93;4.90;;;8.20;75.20;7.90;96203.00;;;;5100549;28;20251;-84
2022/12/05 02:33:06;;;;;;;6.20;4.50;;;8.10;75.10;7.90;96212.00;;;;5104292;28;20214;-86
2022/12/05 02:35:55;;;;;;;6.97;5.07;;;8.10;75.00;7.90;96222.00;;;;5103625;28;20235;-86
2022/12/05 02:38:31;;;;;;;4.93;4.37;;;8.10;74.90;7.80;96227.00;;;;5102189;28;20203;-84
2022/12/05 02:41:14;;;;;;;6.73;4.93;;;8.10;74.90;7.80;96222.00;;;;5105311;28;20275;-87
2022/12/05 02:43:50;;;;;;;7.10;5.50;;;8.10;74.70;7.80;96223.00;;;;5102849;28;20253;-86
2022/12/05 02:46:24;;;;;;;12.37;5.37;;;8.10;74.90;7.80;96230.00;;;;5106294;28;20285;-87
2022/12/05 02:48:58;;;;;;;6.90;5.27;;;8.10;74.80;7.80;96230.00;;;;5101981;28;20703;-85
2022/12/05 02:51:31;;;;;;;6.60;4.87;;;8.00;75.00;7.80;96236.00;;;;5104154;28;20277;-86
2022/12/05 02:54:05;;;;;;;7.17;5.07;;;8.00;75.10;7.80;96240.00;;;;5103306;28;20211;-86
2022/12/05 02:56:34;;;;;;;5.60;4.90;;;8.00;75.20;7.80;96231.00;;;;5104002;28;20198;-86
2022/12/05 02:59:02;;;;;;;6.97;5.30;;;7.90;75.00;7.70;96230.00;;;;5104825;28;20303;-87
2022/12/05 03:01:33;;;;;;;7.73;5.40;;;8.00;75.20;7.70;96232.00;;;;5104284;28;20206;-86
2022/12/05 03:04:05;;;;;;;6.00;5.17;;;8.00;75.30;7.70;96235.00;;;;5104077;28;20309;-86
2022/12/05 03:06:39;;;;;;;6.63;5.57;;;8.00;75.40;7.80;96238.00;;;;5104688;28;20273;-84
2022/12/05 03:09:13;;;;;;;7.90;5.53;;;8.00;75.30;7.80;96238.00;;;;5103939;28;20613;-86
2022/12/05 03:11:47;;;;;;;6.57;5.47;;;8.00;75.30;7.80;96236.00;;;;5103790;28;20198;-87
2022/12/05 03:14:21;;;;;;;7.03;4.97;;;8.00;75.40;7.80;96250.00;;;;5105048;28;20321;-85
2022/12/05 03:16:52;;;;;;;6.77;4.90;;;8.00;75.40;7.80;96247.00;;;;5103737;28;20209;-85
2022/12/05 03:19:26;;;;;;;5.13;4.63;;;8.00;75.20;7.70;96246.00;;;;5105048;28;20274;-86
2022/12/05 03:22:01;;;;;;;6.50;4.60;;;8.00;75.20;7.70;96243.00;;;;5104221;28;20239;-86
2022/12/05 03:24:28;;;;;;;7.53;5.40;;;8.00;75.40;7.70;96247.00;;;;5104034;28;20304;-86
2022/12/05 03:27:06;;;;;;;6.70;5.20;;;8.00;75.20;7.70;96254.00;;;;5103859;28;20195;-86
2022/12/05 03:29:42;;;;;;;6.00;4.90;;;8.00;75.20;7.70;96263.00;;;;5103302;28;20293;-87
2022/12/05 03:32:21;;;;;;;7.47;4.90;;;8.00;76.00;7.70;96266.00;;;;5105876;28;20576;-84
2022/12/05 03:35:02;;;;;;;6.03;4.73;;;7.90;75.10;7.70;96256.00;;;;5105669;28;20190;-83
2022/12/05 03:37:44;;;;;;;6.93;5.13;;;7.90;75.00;7.70;96260.00;;;;5126522;28;20195;-85
2022/12/05 03:40:26;;;;;;;7.10;4.60;;;7.90;75.00;7.70;96262.00;;;;5126731;28;20230;-84
2022/12/05 03:43:04;;;;;;;6.77;4.67;;;7.90;75.00;7.70;96281.00;;;;5126393;28;20792;-85
2022/12/05 03:45:42;;;;;;;7.27;5.03;;;7.90;75.10;7.70;96285.00;;;;5127181;28;20201;-83
2022/12/05 03:48:22;;;;;;;6.07;4.43;;;7.80;75.00;7.70;96288.00;;;;5123529;28;20201;-85
2022/12/05 03:50:53;;;;;;;9.67;5.47;;;7.90;75.10;7.60;96291.00;;;;5123030;28;20194;-83
2022/12/05 03:53:27;;;;;;;6.33;5.13;;;7.90;75.10;7.60;96290.00;;;;5123622;28;20309;-85
2022/12/05 03:56:04;;;;;;;6.47;4.90;;;7.90;75.10;7.60;96284.00;;;;5126471;28;20195;-83
2022/12/05 03:58:39;;;;;;;6.70;5.37;;;7.90;75.30;7.60;96285.00;;;;5125434;28;20217;-83
2022/12/05 04:01:10;;;;;;;7.90;5.00;;;7.80;75.40;7.60;96301.00;;;;5121155;28;20267;-84
2022/12/05 04:03:45;;;;;;;7.50;5.70;;;7.80;75.30;7.50;96292.00;;;;5120651;28;20219;-85
2022/12/05 04:06:22;;;;;;;7.30;4.80;;;7.80;75.40;7.50;96297.00;;;;5114979;28;20215;-84
2022/12/05 04:08:54;;;;;;;7.40;5.53;;;7.80;75.40;7.50;96309.00;;;;5117899;28;20266;-84
2022/12/05 04:11:27;;;;;;;7.90;5.53;;;7.80;75.40;7.50;96319.00;;;;5116424;28;20804;-85
2022/12/05 04:14:00;;;;;;;7.00;5.20;;;7.80;75.50;7.60;96329.00;;;;5110423;28;20240;-84
2022/12/05 04:21:36;;;;;;;6.47;4.90;;;7.80;75.50;7.50;96337.00;;;;5107219;28;20206;-84
2022/12/05 04:22:15;;;;;;;7.43;4.97;;;7.70;75.50;7.60;96339.00;;;;5106515;28;20203;-86
2022/12/05 04:27:38;;;;;;;8.47;5.40;;;7.80;75.80;7.50;96330.00;;;;5108274;28;20201;-86
2022/12/05 04:30:10;;;;;;;6.87;5.27;;;7.80;75.70;7.50;96327.00;;;;5106752;28;20678;-86
2022/12/05 04:32:46;;;;;;;6.77;5.23;;;7.80;75.80;7.60;96331.00;;;;5107332;28;20270;-86
2022/12/05 04:35:24;;;;;;;9.90;6.03;;;7.80;75.90;7.60;96321.00;;;;5108657;28;20217;-86
2022/12/05 04:38:02;;;;;;;9.73;5.63;;;7.80;76.00;7.60;96333.00;;;;5107265;28;20305;-86
2022/12/05 04:40:37;;;;;;;7.60;5.43;;;7.80;76.00;7.60;96324.00;;;;5105226;28;20206;-86
2022/12/05 04:43:06;;;;;;;10.87;5.07;;;7.80;76.00;7.60;96330.00;;;;5107705;28;20225;-85
2022/12/05 04:45:37;;;;;;;7.83;5.37;;;7.80;76.10;7.70;96323.00;;;;5107756;28;20226;-84
2022/12/05 04:48:13;;;;;;;8.13;5.40;;;7.90;76.20;7.70;96328.00;;;;5107627;28;20281;-83
2022/12/05 04:50:45;;;;;;;13.63;5.43;;;7.90;76.20;7.70;96332.00;;;;5107003;28;20317;-87
2022/12/05 04:53:14;;;;;;;10.13;5.63;;;7.90;76.20;7.70;96332.00;;;;5109131;28;20221;-85
2022/12/05 04:55:48;;;;;;;9.27;5.73;;;7.90;76.20;7.70;96336.00;;;;5107179;28;20281;-86
2022/12/05 04:58:22;;;;;;;9.97;5.97;;;7.90;76.20;7.80;96331.00;;;;5108284;28;20225;-86
2022/12/05 05:01:02;;;;;;;10.07;6.23;;;7.90;76.20;7.80;96328.00;;;;5105953;28;20249;-86
2022/12/05 05:03:38;;;;;;;9.30;6.43;;;7.90;77.10;7.80;96333.00;;;;5106603;28;20761;-87
2022/12/05 05:06:10;;;;;;;9.70;6.03;;;8.00;76.40;7.80;96322.00;;;;5107084;28;20200;-86
2022/12/05 05:08:46;;;;;;;9.87;6.40;;;8.00;76.40;7.80;96324.00;;;;5107147;28;20624;-86
2022/12/05 05:11:17;;;;;;;8.63;6.13;;;8.00;76.30;7.90;96324.00;;;;5106412;28;20300;-86
2022/12/05 05:13:44;;;;;;;11.07;6.00;;;8.00;76.30;7.90;96330.00;;;;5106633;28;20313;-86
2022/12/05 05:16:17;;;;;;;10.03;6.90;;;8.00;76.40;7.90;96333.00;;;;5106847;28;20230;-86
2022/12/05 05:18:45;;;;;;;8.33;6.60;;;8.10;76.40;7.90;96333.00;;;;5105051;28;20193;-85
2022/12/05 05:21:21;;;;;;;9.43;6.13;;;8.10;76.40;8.00;96333.00;;;;5105738;28;20329;-83
2022/12/05 05:23:49;;;;;;;9.13;6.57;;;8.10;76.40;8.00;96330.00;;;;5105164;28;20220;-86
2022/12/05 05:26:17;;;;;;;10.23;6.30;;;8.20;76.40;8.00;96325.00;;;;5101073;28;21157;-85
2022/12/05 05:28:45;;;;;;;9.27;6.43;;;8.20;76.20;8.00;96328.00;;;;5102373;28;20206;-86
2022/12/05 05:31:13;;;;;;;9.03;6.27;;;8.20;76.10;8.00;96322.00;;;;5103020;28;20749;-83
2022/12/05 05:33:41;;;;;;;9.63;6.17;;;8.20;76.10;7.90;96324.00;;;;5103192;28;20264;-86
2022/12/05 05:36:11;;;;;;;9.10;6.00;;;8.20;75.90;7.90;96335.00;;;;5104260;28;20282;-86
2022/12/05 05:38:42;;;;;;;11.53;7.23;;;8.20;75.90;7.90;96337.00;;;;5101826;28;20201;-86
2022/12/05 05:41:14;;;;;;;9.60;6.87;;;8.20;75.90;7.90;96335.00;;;;5104974;28;20234;-87
2022/12/05 05:43:42;;;;;;;9.20;6.37;;;8.20;75.90;7.90;96328.00;;;;5102239;28;20222;-84
2022/12/05 05:46:10;;;;;;;8.37;5.73;;;8.10;76.00;7.90;96335.00;;;;5104907;28;20320;-86
2022/12/05 05:48:37;;;;;;;8.00;5.77;;;8.20;76.00;8.00;96336.00;;;;5104535;28;20251;-85
2022/12/05 05:51:08;;;;;;;11.10;6.83;;;8.20;76.00;8.00;96346.00;;;;5104287;28;20783;-86
2022/12/05 05:53:36;;;;;;;10.33;6.17;;;8.20;76.10;8.00;96351.00;;;;5107303;28;20242;-85
2022/12/05 05:56:07;;;;;;;7.37;6.03;;;8.20;76.00;8.00;96352.00;;;;5105847;28;20234;-85
2022/12/05 05:58:36;;;;;;;8.07;5.97;;;8.20;76.00;8.00;96356.00;;;;5105317;28;20281;-84
2022/12/05 06:01:04;;;;;;;9.43;6.17;;;8.20;76.00;8.10;96354.00;;;;5105579;28;20641;-84
2022/12/05 06:03:31;;;;;;;10.17;6.87;;;8.20;75.90;8.10;96356.00;;;;5105445;28;20626;-86
2022/12/05 06:06:01;;;;;;;10.33;6.30;;;8.20;76.00;8.10;96358.00;;;;5102616;28;20199;-86
2022/12/05 06:08:30;;;;;;;8.67;6.37;;;8.30;76.10;8.10;96360.00;;;;5104899;28;20213;-85
2022/12/05 06:10:57;;;;;;;7.50;5.83;;;8.30;76.20;8.10;96356.00;;;;5103986;28;20208;-85
2022/12/05 06:13:25;;;;;;;7.00;5.30;;;8.30;76.10;8.10;96364.00;;;;5105865;28;20253;-86
2022/12/05 06:15:53;;;;;;;8.00;6.03;;;8.30;76.10;8.20;96370.00;;;;5104595;28;20282;-84
2022/12/05 06:18:20;;;;;;;8.90;6.43;;;8.30;76.00;8.20;96368.00;;;;5103715;28;20234;-84
2022/12/05 06:20:53;;;;;;;9.23;6.43;;;8.30;76.00;8.20;96361.00;;;;5102997;28;20596;-86
2022/12/05 06:23:20;;;;;;;7.93;6.30;;;8.40;76.00;8.20;96367.00;;;;5105088;28;20271;-86
2022/12/05 06:25:49;;;;;;;8.47;5.80;;;8.40;75.90;8.20;96371.00;;;;5104085;28;20283;-86
2022/12/05 06:28:17;;;;;;;9.33;6.13;;;8.40;76.00;8.30;96378.00;;;;5106689;28;20290;-84
2022/12/05 06:30:46;;;;;;;7.53;6.00;;;8.40;76.00;8.30;96386.00;;;;5102689;28;20295;-85
2022/12/05 06:33:14;;;;;;;8.53;5.73;;;8.50;76.00;8.40;96392.00;;;;5104976;28;20329;-87
2022/12/05 06:35:41;;;;;;;8.20;5.80;;;8.40;76.00;8.40;96393.00;;;;5106845;28;20354;-89
2022/12/05 06:38:10;;;;;;;8.00;5.93;;;8.50;76.00;8.50;96400.00;;;;5104797;28;20743;-89
2022/12/05 06:40:41;;;;;;;7.23;5.30;;;8.50;76.00;8.50;96403.00;;;;5105195;28;20630;-89
2022/12/05 06:43:08;;;;;;;6.90;5.37;;;8.60;76.00;8.60;96417.00;;;;5083334;28;20740;-88
2022/12/05 06:45:38;;;;;;;9.93;5.90;;;8.60;75.90;8.60;96412.00;;;;5098340;28;20331;-87
2022/12/05 06:48:07;;;;;;;9.90;6.13;;;8.60;75.80;8.70;96417.00;;;;5105542;28;20847;-86
2022/12/05 06:50:34;;;;;;;9.33;6.60;;;8.70;75.70;8.70;96416.00;;;;5098420;28;20573;-88
2022/12/05 06:53:01;;;;;;;8.53;6.40;;;8.70;75.60;8.70;96422.00;;;;5105529;28;20253;-88
2022/12/05 06:55:28;;;;;;;6.97;5.63;;;8.70;75.30;8.70;96434.00;;;;5104087;28;20234;-88
2022/12/05 06:57:55;;;;;;;7.53;5.90;;;8.70;75.20;8.70;96436.00;;;;5104895;28;21228;-86
2022/12/05 07:03:11;;;;;;;8.30;6.40;;;8.70;75.00;8.70;96440.00;;;;5103770;28;20399;-89
2022/12/05 07:05:38;;;;;;;10.03;6.50;;;8.70;75.20;8.70;96439.00;;;;5103635;28;20226;-87
2022/12/05 07:08:05;;;;;;;9.90;6.47;;;8.70;75.20;8.70;96436.00;;;;5104545;28;20202;-89
2022/12/05 07:10:32;;;;;;;10.30;7.07;;;8.70;75.30;8.70;96442.00;;;;5102781;28;20290;-89
2022/12/05 07:12:59;;;;;;;11.43;7.50;;;8.70;75.20;8.70;96443.00;;;;5106166;28;20306;-89
2022/12/05 07:15:27;;;;;;;11.00;7.67;;;8.70;75.20;8.80;96446.00;;;;5103725;28;20696;-87
2022/12/05 07:17:54;;;;;;;11.33;6.97;;;8.70;75.10;8.80;96459.00;;;;5104580;28;20274;-90
2022/12/05 07:20:22;;;;;;;10.87;8.13;;;8.70;75.10;8.80;96457.00;;;;5101870;28;20281;-89
2022/12/05 07:22:49;;;;;;;11.83;7.97;;;8.70;75.10;8.80;96462.00;;;;5105889;28;20301;-90
2022/12/05 07:25:18;;;;;;;12.37;7.43;;;8.70;74.90;8.80;96469.00;;;;5104966;28;20230;-88
2022/12/05 07:27:46;;;;;;;10.57;7.17;;;8.80;74.90;8.80;96465.00;;;;5104340;28;21101;-88
2022/12/05 07:30:14;;;;;;;10.17;6.53;;;8.70;74.90;8.80;96467.00;;;;5106693;28;20230;-88
2022/12/05 07:32:41;;;;;;;9.00;6.53;;;8.70;75.10;8.80;96470.00;;;;5102806;28;20252;-88
2022/12/05 07:35:09;;;;;;;12.37;6.90;;;8.70;75.10;8.80;96467.00;;;;5103367;28;20287;-87
2022/12/05 07:37:37;;;;;;;10.30;7.20;;;8.70;75.10;8.80;96461.00;;;;5104319;28;20210;-88
2022/12/05 07:40:06;;;;;;;12.83;7.23;;;8.70;75.20;8.80;96464.00;;;;5103842;28;20244;-89
2022/12/05 07:42:35;;;;;;;10.50;6.80;;;8.80;75.40;8.80;96457.00;;;;5104442;28;20229;-88
2022/12/05 07:45:03;;;;;;;12.53;7.70;;;8.80;75.50;8.80;96452.00;;;;5103486;28;20241;-88
2022/12/05 07:47:30;;;;;;;11.83;7.57;;;8.80;75.50;8.90;96452.00;;;;5104453;28;20209;-89
2022/12/05 07:49:57;;;;;;;11.80;7.27;;;8.80;75.30;8.90;96461.00;;;;5102514;28;20213;-87
2022/12/05 07:52:24;;;;;;;13.27;7.97;;;8.80;75.20;8.90;96455.00;;;;5103803;28;20286;-89
2022/12/05 07:54:53;;;;;;;11.43;7.17;;;8.80;75.20;8.90;96468.00;;;;5104422;28;20218;-88
2022/12/05 07:57:20;;;;;;;14.50;7.67;;;8.90;75.30;8.90;96480.00;;;;5105513;28;20480;-89
2022/12/05 07:59:47;;;;;;;12.77;8.17;;;8.90;75.30;8.90;96469.00;;;;5103520;28;20207;-88
2022/12/05 08:02:14;;;;;;;10.80;7.30;;;8.90;75.20;8.90;96464.00;;;;5105401;28;20228;-88
2022/12/05 08:04:41;;;;;;;12.03;7.40;;;8.90;75.10;8.90;96459.00;;;;5102459;28;20302;-89
2022/12/05 08:07:11;;;;;;;11.90;7.90;;;8.90;75.30;9.00;96469.00;;;;5105698;28;20289;-85
2022/12/05 08:09:38;;;;;;;13.10;7.83;;;9.00;75.20;9.00;96478.00;;;;5116609;28;20287;-88
2022/12/05 08:12:07;;;;;;;14.60;7.90;;;8.90;75.20;9.00;96471.00;;;;5104466;28;20241;-88
2022/12/05 08:14:34;;;;;;;11.80;8.07;;;8.90;75.00;9.00;96468.00;;;;5103133;28;20253;-88
2022/12/05 08:17:03;;;;;;;15.03;8.67;;;8.90;74.90;9.00;96462.00;;;;5102703;28;20689;-89
2022/12/05 08:19:30;;;;;;;12.43;7.93;;;9.00;75.00;9.00;96485.00;;;;5096177;28;21031;-85
2022/12/05 08:21:57;;;;;;;13.60;8.10;;;8.90;75.00;9.00;96479.00;;;;5102098;28;20257;-88
2022/12/05 08:24:24;;;;;;;12.53;7.77;;;9.00;75.00;9.00;96477.00;;;;5101273;28;20218;-88
2022/12/05 08:26:52;;;;;;;14.23;8.40;;;8.90;75.00;9.00;96470.00;;;;5105622;28;20216;-89
2022/12/05 08:29:22;;;;;;;11.90;8.30;;;8.90;74.90;9.00;96488.00;;;;5101008;28;20211;-88
2022/12/05 08:31:51;;;;;;;11.90;7.73;;;8.90;74.70;9.00;96492.00;;;;5104602;28;20275;-88
2022/12/05 08:34:20;;;;;;;15.80;7.53;;;8.90;74.80;9.00;96501.00;;;;5102086;28;20301;-88
2022/12/05 08:36:48;;;;;;;13.40;7.73;;;8.90;74.80;9.00;96493.00;;;;5104803;28;20203;-86
2022/12/05 08:39:19;;;;;;;12.70;8.17;;;8.90;74.70;8.90;96505.00;;;;5104556;28;20290;-88
2022/12/05 08:41:47;;;;;;;12.00;7.83;;;8.90;74.70;8.90;96494.00;;;;5104557;28;20229;-88
2022/12/05 08:44:17;;;;;;;12.57;7.43;;;8.80;74.70;8.80;96500.00;;;;5106275;28;20273;-88
2022/12/05 08:46:48;;;;;;;12.23;7.87;;;8.90;74.90;8.80;96498.00;;;;5107260;28;20747;-88
2022/12/05 08:49:17;;;;;;;12.10;7.53;;;8.90;74.90;8.80;96500.00;;;;5103032;28;20203;-89
2022/12/05 08:51:44;;;;;;;16.47;8.47;;;8.90;75.10;8.80;96502.00;;;;5103863;28;20206;-88
2022/12/05 08:54:12;;;;;;;14.77;8.60;;;8.80;75.20;8.80;96510.00;;;;5104903;28;20218;-89
2022/12/05 08:56:39;;;;;;;11.97;7.97;;;8.80;75.40;8.80;96517.00;;;;5104072;28;20202;-87
2022/12/05 08:59:07;;;;;;;11.83;7.37;;;8.80;75.30;8.80;96519.00;;;;5107281;28;20737;-88
2022/12/05 09:01:37;;;;;;;11.67;7.37;;;8.80;75.60;8.80;96527.00;;;;5105622;28;20801;-87
2022/12/05 09:04:07;;;;;;;13.70;7.97;;;8.80;76.40;8.70;96539.00;;;;5106918;28;20229;-88
2022/12/05 09:06:35;;;;;;;13.33;8.33;;;8.70;75.70;8.70;96535.00;;;;5103284;28;20360;-89
2022/12/05 09:09:07;;;;;;;15.70;8.67;;;8.70;75.60;8.70;96537.00;;;;5107419;28;20290;-86
2022/12/05 09:11:39;;;;;;;14.07;7.63;;;8.70;75.70;8.60;96543.00;;;;5105800;28;20231;-88
2022/12/05 09:14:07;;;;;;;13.93;8.80;;;8.70;76.00;8.60;96540.00;;;;5106376;28;20234;-88
2022/12/05 09:16:36;;;;;;;12.60;8.03;;;8.60;76.40;8.60;96545.00;;;;5104438;28;21302;-89
2022/12/05 09:19:05;;;;;;;14.30;8.00;;;8.70;76.80;8.60;96540.00;;;;5107611;28;20237;-88
2022/12/05 09:21:33;;;;;;;15.03;8.50;;;8.60;76.90;8.50;96535.00;;;;5106225;28;20219;-87
2022/12/05 09:24:01;;;;;;;14.70;8.30;;;8.60;77.00;8.50;96539.00;;;;5106786;28;20246;-88
2022/12/05 09:26:30;;;;;;;14.67;9.17;;;8.60;77.20;8.50;96542.00;;;;5102577;28;20206;-89
2022/12/05 09:28:57;;;;;;;13.37;8.33;;;8.50;77.20;8.50;96544.00;;;;5105357;28;20275;-89
2022/12/05 09:31:28;;;;;;;13.30;8.43;;;8.50;77.30;8.50;96537.00;;;;5102099;28;20290;-89
2022/12/05 09:33:55;;;;;;;14.13;8.30;;;8.50;77.30;8.50;96540.00;;;;5104869;28;20219;-89
2022/12/05 09:36:27;;;;;;;15.97;8.07;;;8.50;77.50;8.50;96537.00;;;;5106717;28;20340;-87
2022/12/05 09:38:55;;;;;;;13.87;8.03;;;8.50;77.60;8.50;96533.00;;;;5102202;28;20202;-89
2022/12/05 09:42:07;;;;;;;12.60;8.20;;;8.50;77.80;8.50;96538.00;;;;5108686;28;20310;-88
2022/12/05 09:44:55;;;;;;;14.60;8.63;;;8.50;78.00;8.60;96533.00;;;;5110080;28;20234;-87
2022/12/05 09:47:35;;;;;;;14.30;8.17;;;8.50;78.10;8.60;96532.00;;;;5107821;28;20195;-89
2022/12/05 09:50:15;;;;;;;11.57;7.60;;;8.50;78.20;8.60;96539.00;;;;5102713;28;20319;-89
2022/12/05 09:52:58;;;;;;;16.80;8.10;;;8.50;78.20;8.60;96536.00;;;;5099511;28;20824;-90
2022/12/05 09:55:31;;;;;;;14.17;8.57;;;8.50;78.20;8.60;96537.00;;;;5099870;28;20282;-89
2022/12/05 09:58:02;;;;;;;19.20;9.27;;;8.50;78.30;8.60;96536.00;;;;5106007;28;20222;-89
2022/12/05 10:00:32;;;;;;;15.07;9.17;;;8.60;78.30;8.60;96540.00;;;;5105052;28;20587;-88
2022/12/05 10:03:19;;;;;;;12.43;8.30;;;8.60;78.30;8.60;96545.00;;;;5106136;28;20222;-86
2022/12/05 10:05:57;;;;;;;13.83;9.03;;;8.60;78.40;8.60;96543.00;;;;5105081;28;20277;-86
2022/12/05 10:08:36;;;;;;;14.10;8.70;;;8.60;78.50;8.60;96546.00;;;;5105480;28;20198;-88
2022/12/05 10:11:14;;;;;;;12.53;8.40;;;8.60;78.50;8.70;96547.00;;;;5104736;28;20243;-89
2022/12/05 10:13:55;;;;;;;15.83;8.57;;;8.70;78.40;8.70;96542.00;;;;5103817;28;20244;-89
2022/12/05 10:16:32;;;;;;;16.23;9.17;;;8.70;78.20;8.70;96546.00;;;;5106183;28;20643;-87
2022/12/05 10:19:06;;;;;;;15.37;8.93;;;8.60;78.10;8.70;96546.00;;;;5105030;28;20198;-89
2022/12/05 10:21:45;;;;;;;13.77;8.87;;;8.70;78.10;8.80;96542.00;;;;5104073;28;20299;-88
2022/12/05 10:24:20;;;;;;;14.47;9.27;;;8.70;78.10;8.70;96547.00;;;;5103431;28;20254;-87
2022/12/05 10:26:58;;;;;;;13.47;9.07;;;8.70;78.10;8.70;96540.00;;;;5102726;28;20193;-90
2022/12/05 10:29:33;;;;;;;13.87;9.00;;;8.70;78.10;8.70;96542.00;;;;5102609;28;20194;-89
2022/12/05 10:32:11;;;;;;;15.93;9.77;;;8.70;78.20;8.70;96543.00;;;;5106308;28;20629;-88
2022/12/05 10:34:40;;;;;;;19.20;9.27;;;8.70;78.10;8.70;96529.00;;;;5103785;28;20232;-89
2022/12/05 10:37:17;;;;;;;13.03;8.80;;;8.70;78.10;8.80;96533.00;;;;5105879;28;20210;-89
2022/12/05 10:39:47;;;;;;;13.40;8.47;;;8.80;78.50;8.80;96528.00;;;;5103169;28;20206;-88
2022/12/05 10:42:18;;;;;;;14.13;8.80;;;8.80;78.70;8.80;96521.00;;;;5099861;28;20224;-88
2022/12/05 10:44:46;;;;;;;15.60;9.20;;;8.80;78.80;8.80;96529.00;;;;5100082;28;20675;-89
2022/12/05 10:47:13;;;;;;;12.93;8.10;;;8.80;78.80;8.90;96524.00;;;;5103113;28;20245;-89
2022/12/05 10:49:40;;;;;;;12.97;8.67;;;8.80;78.80;8.90;96522.00;;;;5103183;28;20247;-86
2022/12/05 10:52:09;;;;;;;14.20;8.83;;;8.80;78.80;9.00;96516.00;;;;5098036;28;20291;-88
2022/12/05 10:54:45;;;;;;;12.67;7.87;;;8.80;79.00;9.00;96517.00;;;;5101311;28;20719;-89
2022/12/05 10:57:24;;;;;;;15.07;8.23;;;9.00;79.40;9.10;96521.00;;;;5103284;28;20846;-87
2022/12/05 10:59:52;;;;;;;12.60;7.17;;;8.90;79.50;9.10;96508.00;;;;5103450;28;20226;-87
2022/12/05 11:02:26;;;;;;;12.60;8.47;;;9.00;79.50;9.10;96515.00;;;;5101182;28;20242;-88
2022/12/05 11:04:54;;;;;;;11.67;7.40;;;9.00;79.60;9.20;96515.00;;;;5104931;28;20194;-89
2022/12/05 11:07:30;;;;;;;11.77;7.23;;;9.00;79.60;9.20;96515.00;;;;5103483;28;20285;-87
2022/12/05 11:09:58;;;;;;;11.93;7.47;;;9.10;79.70;9.20;96504.00;;;;5105146;28;20293;-89
2022/12/05 11:12:36;;;;;;;12.70;7.93;;;9.10;80.40;9.30;96508.00;;;;5103267;28;20682;-88
2022/12/05 11:15:20;;;;;;;12.40;8.20;;;9.10;79.90;9.30;96511.00;;;;5102607;28;20202;-89
2022/12/05 11:17:49;;;;;;;12.63;7.93;;;9.20;80.00;9.40;96512.00;;;;5101466;28;20281;-89
2022/12/05 11:20:39;;;;;;;11.73;8.60;;;9.20;80.30;9.40;96507.00;;;;5104625;28;20347;-89
2022/12/05 11:23:27;;;;;;;12.97;8.47;;;9.30;80.30;9.50;96508.00;;;;5102888;28;20305;-88
2022/12/05 11:25:56;;;;;;;13.00;7.37;;;9.40;80.40;9.50;96507.00;;;;5101730;28;20226;-89
2022/12/05 11:28:35;;;;;;;14.67;8.03;;;9.40;80.40;9.60;96507.00;;;;5102281;28;20339;-89
2022/12/05 11:31:07;;;;;;;12.37;8.40;;;9.40;80.40;9.70;96503.00;;;;5102898;28;20282;-89
2022/12/05 11:33:36;;;;;;;17.77;8.53;;;9.50;80.50;9.70;96503.00;;;;5105171;28;20275;-87
2022/12/05 11:36:13;;;;;;;12.93;8.90;;;9.40;80.20;9.70;96510.00;;;;5103841;28;20289;-89